sensor_id;sensor_type;location;lat;lon;timestamp;pressure;altitude;pressure_sealevel;temperature;humidity
24013;BME280;12220;50.194;18.948;2023-02-22T00:29:03;101902.80;;;5.51;70.15
24013;BME280;12220;50.194;18.948;2023-02-22T00:31:10;101906.41;;;5.52;70.08
24013;BME280;12220;50.194;18.948;2023-02-22T00:33:12;101902.80;;;5.51;69.92
24013;BME280;12220;50.194;18.948;2023-02-22T00:35:16;101910.13;;;5.49;69.83
24013;BME280;12220;50.194;18.948;2023-02-22T00:37:18;101906.55;;;5.47;69.82
24013;BME280;12220;50.194;18.948;2023-02-22T00:39:20;101914.80;;;5.44;69.82
24013;BME280;12220;50.194;18.948;2023-02-22T00:41:22;101918.53;;;5.40;69.82
24013;BME280;12220;50.194;18.948;2023-02-22T00:43:24;101906.94;;;5.35;69.79
24013;BME280;12220;50.194;18.948;2023-02-22T00:45:29;101911.59;;;5.30;69.80
24013;BME280;12220;50.194;18.948;2023-02-22T00:47:31;101912.59;;;5.27;69.92
24013;BME280;12220;50.194;18.948;2023-02-22T00:49:38;101912.60;;;5.26;70.00
24013;BME280;12220;50.194;18.948;2023-02-22T00:51:39;101907.18;;;5.26;70.08
24013;BME280;12220;50.194;18.948;2023-02-22T00:53:40;101902.61;;;5.28;70.17
24013;BME280;12220;50.194;18.948;2023-02-22T00:55:42;101907.13;;;5.29;70.11
24013;BME280;12220;50.194;18.948;2023-02-22T00:57:53;101913.48;;;5.28;69.96
24013;BME280;12220;50.194;18.948;2023-02-22T00:59:57;101909.02;;;5.25;69.93
24013;BME280;12220;50.194;18.948;2023-02-22T01:01:58;101908.23;;;5.21;69.95
24013;BME280;12220;50.194;18.948;2023-02-22T01:04:00;101908.30;;;5.18;69.99
24013;BME280;12220;50.194;18.948;2023-02-22T01:06:08;101912.93;;;5.15;69.99
24013;BME280;12220;50.194;18.948;2023-02-22T01:08:11;101909.44;;;5.11;69.98
24013;BME280;12220;50.194;18.948;2023-02-22T01:10:14;101914.92;;;5.08;70.02
24013;BME280;12220;50.194;18.948;2023-02-22T01:12:15;101907.73;;;5.07;70.04
24013;BME280;12220;50.194;18.948;2023-02-22T01:14:24;101905.06;;;5.05;70.10
24013;BME280;12220;50.194;18.948;2023-02-22T01:16:29;101916.02;;;5.02;70.14
24013;BME280;12220;50.194;18.948;2023-02-22T01:18:31;101914.18;;;5.03;70.11
24013;BME280;12220;50.194;18.948;2023-02-22T01:20:32;101913.32;;;5.01;70.13
24013;BME280;12220;50.194;18.948;2023-02-22T01:22:44;101917.90;;;4.99;70.09
24013;BME280;12220;50.194;18.948;2023-02-22T01:24:47;101918.00;;;4.96;70.05
24013;BME280;12220;50.194;18.948;2023-02-22T01:26:51;101916.30;;;4.92;70.02
24013;BME280;12220;50.194;18.948;2023-02-22T01:28:53;101907.41;;;4.86;70.05
24013;BME280;12220;50.194;18.948;2023-02-22T01:30:55;101908.42;;;4.82;70.11
24013;BME280;12220;50.194;18.948;2023-02-22T01:32:57;101904.00;;;4.78;70.11
24013;BME280;12220;50.194;18.948;2023-02-22T01:37:31;101902.26;;;4.76;70.19
24013;BME280;12220;50.194;18.948;2023-02-22T01:39:33;101910.39;;;4.76;70.27
24013;BME280;12220;50.194;18.948;2023-02-22T01:41:45;101900.46;;;4.76;70.31
24013;BME280;12220;50.194;18.948;2023-02-22T01:43:47;101901.33;;;4.77;70.32
24013;BME280;12220;50.194;18.948;2023-02-22T01:45:58;101907.63;;;4.77;70.30
24013;BME280;12220;50.194;18.948;2023-02-22T01:48:08;101908.60;;;4.76;70.22
24013;BME280;12220;50.194;18.948;2023-02-22T01:50:09;101908.60;;;4.76;70.28
24013;BME280;12220;50.194;18.948;2023-02-22T01:52:20;101904.05;;;4.77;70.22
24013;BME280;12220;50.194;18.948;2023-02-22T01:54:32;101909.52;;;4.75;70.14
24013;BME280;12220;50.194;18.948;2023-02-22T01:56:38;101908.60;;;4.75;70.12
24013;BME280;12220;50.194;18.948;2023-02-22T01:58:48;101903.27;;;4.71;70.13
24013;BME280;12220;50.194;18.948;2023-02-22T02:00:50;101907.91;;;4.68;70.04
24013;BME280;12220;50.194;18.948;2023-02-22T02:03:06;101906.23;;;4.62;69.92
24013;BME280;12220;50.194;18.948;2023-02-22T02:05:09;101908.21;;;4.56;69.90
24013;BME280;12220;50.194;18.948;2023-02-22T02:07:13;101903.88;;;4.48;69.89
24013;BME280;12220;50.194;18.948;2023-02-22T02:11:33;101905.17;;;4.33;70.01
24013;BME280;12220;50.194;18.948;2023-02-22T02:13:38;101905.29;;;4.29;70.23
24013;BME280;12220;50.194;18.948;2023-02-22T02:15:41;101911.68;;;4.26;70.38
24013;BME280;12220;50.194;18.948;2023-02-22T02:17:43;101906.26;;;4.26;70.47
24013;BME280;12220;50.194;18.948;2023-02-22T02:29:10;101911.92;;;4.17;70.47
24013;BME280;12220;50.194;18.948;2023-02-22T02:31:36;101914.59;;;4.18;70.55
24013;BME280;12220;50.194;18.948;2023-02-22T02:33:50;101906.45;;;4.18;70.63
24013;BME280;12220;50.194;18.948;2023-02-22T02:47:55;101910.71;;;4.29;70.78
24013;BME280;12220;50.194;18.948;2023-02-22T02:50:07;101910.67;;;4.30;70.79
24013;BME280;12220;50.194;18.948;2023-02-22T02:52:15;101914.27;;;4.31;70.79
24013;BME280;12220;50.194;18.948;2023-02-22T02:54:20;101905.26;;;4.30;70.80
24013;BME280;12220;50.194;18.948;2023-02-22T02:56:23;101908.80;;;4.32;70.83
24013;BME280;12220;50.194;18.948;2023-02-22T02:58:25;101917.88;;;4.31;70.82
24013;BME280;12220;50.194;18.948;2023-02-22T03:00:31;101914.22;;;4.32;70.67
24013;BME280;12220;50.194;18.948;2023-02-22T03:02:55;101922.40;;;4.31;70.73
24013;BME280;12220;50.194;18.948;2023-02-22T03:09:35;101914.35;;;4.28;70.84
24013;BME280;12220;50.194;18.948;2023-02-22T03:11:53;101919.77;;;4.28;70.86
24013;BME280;12220;50.194;18.948;2023-02-22T03:18:53;101922.48;;;4.28;70.89
24013;BME280;12220;50.194;18.948;2023-02-22T03:21:13;101915.35;;;4.24;70.66
24013;BME280;12220;50.194;18.948;2023-02-22T03:23:28;101922.72;;;4.18;70.67
24013;BME280;12220;50.194;18.948;2023-02-22T03:27:52;101919.41;;;4.06;70.50
24013;BME280;12220;50.194;18.948;2023-02-22T03:30:01;101914.22;;;3.96;70.66
24013;BME280;12220;50.194;18.948;2023-02-22T03:32:09;101916.13;;;3.91;70.88
24013;BME280;12220;50.194;18.948;2023-02-22T03:34:25;101918.89;;;3.90;71.06
24013;BME280;12220;50.194;18.948;2023-02-22T03:36:38;101928.80;;;3.91;71.18
24013;BME280;12220;50.194;18.948;2023-02-22T03:38:41;101926.98;;;3.91;71.16
24013;BME280;12220;50.194;18.948;2023-02-22T03:40:48;101926.13;;;3.89;71.16
24013;BME280;12220;50.194;18.948;2023-02-22T03:42:57;101930.59;;;3.90;71.15
24013;BME280;12220;50.194;18.948;2023-02-22T04:02:08;101944.27;;;3.86;71.02
24013;BME280;12220;50.194;18.948;2023-02-22T04:04:09;101940.71;;;3.83;70.96
24013;BME280;12220;50.194;18.948;2023-02-22T04:06:19;101948.91;;;3.80;70.90
24013;BME280;12220;50.194;18.948;2023-02-22T04:08:20;101936.36;;;3.76;70.93
24013;BME280;12220;50.194;18.948;2023-02-22T04:10:23;101940.94;;;3.74;70.99
24013;BME280;12220;50.194;18.948;2023-02-22T04:12:24;101939.14;;;3.73;71.09
24013;BME280;12220;50.194;18.948;2023-02-22T04:14:34;101939.14;;;3.73;71.13
24013;BME280;12220;50.194;18.948;2023-02-22T04:16:36;101940.09;;;3.71;71.22
24013;BME280;12220;50.194;18.948;2023-02-22T04:18:37;101939.21;;;3.70;71.26
24013;BME280;12220;50.194;18.948;2023-02-22T04:20:39;101939.21;;;3.70;71.23
24013;BME280;12220;50.194;18.948;2023-02-22T04:22:50;101948.28;;;3.68;71.10
24013;BME280;12220;50.194;18.948;2023-02-22T04:24:53;101946.61;;;3.62;71.05
24013;BME280;12220;50.194;18.948;2023-02-22T04:26:54;101938.55;;;3.59;71.16
24013;BME280;12220;50.194;18.948;2023-02-22T04:28:56;101940.41;;;3.55;71.29
24013;BME280;12220;50.194;18.948;2023-02-22T04:31:04;101944.95;;;3.55;71.44
24013;BME280;12220;50.194;18.948;2023-02-22T04:33:06;101947.63;;;3.56;71.55
24013;BME280;12220;50.194;18.948;2023-02-22T04:35:07;101692.57;;;2.17;71.49
24013;BME280;12220;50.194;18.948;2023-02-22T04:37:09;101934.92;;;3.60;71.64
24013;BME280;12220;50.194;18.948;2023-02-22T04:39:19;101934.89;;;3.61;71.66
24013;BME280;12220;50.194;18.948;2023-02-22T04:41:21;101933.95;;;3.62;71.68
24013;BME280;12220;50.194;18.948;2023-02-22T04:43:22;101935.70;;;3.65;71.69
24013;BME280;12220;50.194;18.948;2023-02-22T04:45:25;101936.57;;;3.67;71.67
24013;BME280;12220;50.194;18.948;2023-02-22T04:47:38;101932.04;;;3.68;71.69
24013;BME280;12220;50.194;18.948;2023-02-22T04:49:39;101935.62;;;3.68;71.59
24013;BME280;12220;50.194;18.948;2023-02-22T04:51:43;101941.05;;;3.68;71.37
24013;BME280;12220;50.194;18.948;2023-02-22T04:53:45;101930.36;;;3.62;71.26
24013;BME280;12220;50.194;18.948;2023-02-22T04:55:49;101934.08;;;3.56;71.17
24013;BME280;12220;50.194;18.948;2023-02-22T04:57:55;101936.02;;;3.51;71.24
24013;BME280;12220;50.194;18.948;2023-02-22T04:59:57;101937.91;;;3.46;71.43
24013;BME280;12220;50.194;18.948;2023-02-22T05:01:59;101935.28;;;3.43;71.59
24013;BME280;12220;50.194;18.948;2023-02-22T05:04:05;101932.54;;;3.44;71.67
24013;BME280;12220;50.194;18.948;2023-02-22T05:06:10;101936.16;;;3.43;71.68
24013;BME280;12220;50.194;18.948;2023-02-22T05:08:17;101943.37;;;3.44;71.66
24013;BME280;12220;50.194;18.948;2023-02-22T05:10:19;101935.24;;;3.44;71.50
24013;BME280;12220;50.194;18.948;2023-02-22T05:12:22;101936.16;;;3.43;71.47
24013;BME280;12220;50.194;18.948;2023-02-22T05:15:23;101937.11;;;3.42;71.42
24013;BME280;12220;50.194;18.948;2023-02-22T05:17:25;101937.14;;;3.41;71.43
24013;BME280;12220;50.194;18.948;2023-02-22T05:19:27;101939.86;;;3.39;71.45
24013;BME280;12220;50.194;18.948;2023-02-22T05:21:38;101942.56;;;3.39;71.49
24013;BME280;12220;50.194;18.948;2023-02-22T05:23:40;101945.27;;;3.39;71.52
24013;BME280;12220;50.194;18.948;2023-02-22T05:25:42;101936.29;;;3.37;71.52
24013;BME280;12220;50.194;18.948;2023-02-22T05:27:44;101933.59;;;3.37;71.45
24013;BME280;12220;50.194;18.948;2023-02-22T05:29:53;101932.74;;;3.35;71.48
24013;BME280;12220;50.194;18.948;2023-02-22T05:31:57;101940.84;;;3.37;71.58
24013;BME280;12220;50.194;18.948;2023-02-22T05:33:58;101946.28;;;3.35;71.58
24013;BME280;12220;50.194;18.948;2023-02-22T05:36:00;101942.66;;;3.35;71.56
24013;BME280;12220;50.194;18.948;2023-02-22T05:38:09;101941.78;;;3.34;71.51
24013;BME280;12220;50.194;18.948;2023-02-22T05:40:17;101947.26;;;3.31;71.55
24013;BME280;12220;50.194;18.948;2023-02-22T05:42:19;101950.00;;;3.29;71.54
24013;BME280;12220;50.194;18.948;2023-02-22T05:44:22;101948.23;;;3.27;71.32
24013;BME280;12220;50.194;18.948;2023-02-22T05:46:24;101955.48;;;3.26;71.65
24013;BME280;12220;50.194;18.948;2023-02-22T05:48:25;101956.43;;;3.24;71.63
24013;BME280;12220;50.194;18.948;2023-02-22T05:50:27;101955.55;;;3.23;71.71
24013;BME280;12220;50.194;18.948;2023-02-22T05:52:29;101957.38;;;3.21;71.82
24013;BME280;12220;50.194;18.948;2023-02-22T05:54:39;101953.73;;;3.24;71.97
24013;BME280;12220;50.194;18.948;2023-02-22T05:56:40;101954.63;;;3.23;72.37
24013;BME280;12220;50.194;18.948;2023-02-22T05:58:45;101962.70;;;3.26;72.03
24013;BME280;12220;50.194;18.948;2023-02-22T06:00:49;101964.52;;;3.25;72.00
24013;BME280;12220;50.194;18.948;2023-02-22T06:02:59;101967.20;;;3.27;72.03
24013;BME280;12220;50.194;18.948;2023-02-22T06:05:01;101964.48;;;3.27;72.21
24013;BME280;12220;50.194;18.948;2023-02-22T06:07:05;101977.07;;;3.29;72.26
24013;BME280;12220;50.194;18.948;2023-02-22T06:09:07;101968.98;;;3.28;72.25
24013;BME280;12220;50.194;18.948;2023-02-22T06:13:33;101970.75;;;3.29;72.29
24013;BME280;12220;50.194;18.948;2023-02-22T06:15:35;101978.89;;;3.27;72.37
24013;BME280;12220;50.194;18.948;2023-02-22T06:17:36;101982.52;;;3.28;72.42
24013;BME280;12220;50.194;18.948;2023-02-22T06:19:41;101987.97;;;3.26;72.37
24013;BME280;12220;50.194;18.948;2023-02-22T06:21:52;101991.59;;;3.25;72.45
24013;BME280;12220;50.194;18.948;2023-02-22T06:23:54;101999.71;;;3.25;72.61
24013;BME280;12220;50.194;18.948;2023-02-22T06:25:55;101994.27;;;3.27;72.70
24013;BME280;12220;50.194;18.948;2023-02-22T06:27:58;101999.68;;;3.27;72.82
24013;BME280;12220;50.194;18.948;2023-02-22T06:30:01;102005.06;;;3.28;72.87
24013;BME280;12220;50.194;18.948;2023-02-22T06:32:06;101997.83;;;3.29;73.00
24013;BME280;12220;50.194;18.948;2023-02-22T06:34:07;101999.55;;;3.33;73.14
24013;BME280;12220;50.194;18.948;2023-02-22T06:36:09;102013.94;;;3.37;73.25
24013;BME280;12220;50.194;18.948;2023-02-22T06:38:22;102018.34;;;3.42;73.29
24013;BME280;12220;50.194;18.948;2023-02-22T06:40:24;102014.59;;;3.48;73.45
24013;BME280;12220;50.194;18.948;2023-02-22T06:42:29;102008.16;;;3.54;73.50
24013;BME280;12220;50.194;18.948;2023-02-22T06:49:06;102026.72;;;3.74;73.55
24013;BME280;12220;50.194;18.948;2023-02-22T06:51:17;102023.95;;;3.77;73.54
24013;BME280;12220;50.194;18.948;2023-02-22T06:53:18;102026.58;;;3.80;73.49
24013;BME280;12220;50.194;18.948;2023-02-22T06:55:29;102030.16;;;3.82;73.50
24013;BME280;12220;50.194;18.948;2023-02-22T06:57:31;102026.52;;;3.84;73.59
24013;BME280;12220;50.194;18.948;2023-02-22T06:59:33;102034.53;;;3.89;73.63
24013;BME280;12220;50.194;18.948;2023-02-22T07:01:34;102038.05;;;3.93;73.69
24013;BME280;12220;50.194;18.948;2023-02-22T07:03:36;102025.35;;;3.96;73.71
24013;BME280;12220;50.194;18.948;2023-02-22T07:05:38;102032.49;;;3.99;73.74
24013;BME280;12220;50.194;18.948;2023-02-22T07:07:48;102038.79;;;4.01;73.75
24013;BME280;12220;50.194;18.948;2023-02-22T07:09:52;102040.55;;;4.04;73.80
24013;BME280;12220;50.194;18.948;2023-02-22T07:12:01;102037.77;;;4.07;73.88
24013;BME280;12220;50.194;18.948;2023-02-22T07:14:16;102037.66;;;4.11;73.94
24013;BME280;12220;50.194;18.948;2023-02-22T07:16:18;102032.09;;;4.17;74.01
24013;BME280;12220;50.194;18.948;2023-02-22T07:18:24;102035.67;;;4.19;74.08
24013;BME280;12220;50.194;18.948;2023-02-22T07:20:28;102039.16;;;4.25;74.17
24013;BME280;12220;50.194;18.948;2023-02-22T07:22:30;102031.82;;;4.30;74.24
24013;BME280;12220;50.194;18.948;2023-02-22T07:24:34;102030.82;;;4.34;74.32
24013;BME280;12220;50.194;18.948;2023-02-22T07:26:41;102034.27;;;4.41;74.37
24013;BME280;12220;50.194;18.948;2023-02-22T07:28:43;102035.98;;;4.45;74.40
24013;BME280;12220;50.194;18.948;2023-02-22T07:30:44;102032.28;;;4.49;74.42
24013;BME280;12220;50.194;18.948;2023-02-22T07:32:46;102030.32;;;4.54;74.50
24013;BME280;12220;50.194;18.948;2023-02-22T07:34:54;102029.29;;;4.60;74.52
24013;BME280;12220;50.194;18.948;2023-02-22T07:36:56;102028.29;;;4.64;74.60
24013;BME280;12220;50.194;18.948;2023-02-22T07:38:57;102033.52;;;4.71;74.65
24013;BME280;12220;50.194;18.948;2023-02-22T07:40:59;102034.34;;;4.75;74.68
24013;BME280;12220;50.194;18.948;2023-02-22T07:43:16;102032.39;;;4.80;74.59
24013;BME280;12220;50.194;18.948;2023-02-22T07:45:19;102026.88;;;4.83;74.64
24013;BME280;12220;50.194;18.948;2023-02-22T07:47:24;102034.93;;;4.88;74.69
24013;BME280;12220;50.194;18.948;2023-02-22T07:49:25;102027.50;;;4.95;74.78
24013;BME280;12220;50.194;18.948;2023-02-22T07:51:27;102029.21;;;4.99;74.79
24013;BME280;12220;50.194;18.948;2023-02-22T07:53:30;102039.06;;;5.03;74.90
24013;BME280;12220;50.194;18.948;2023-02-22T07:55:33;102039.82;;;5.08;74.90
24013;BME280;12220;50.194;18.948;2023-02-22T07:57:35;102036.06;;;5.14;74.94
24013;BME280;12220;50.194;18.948;2023-02-22T07:59:44;102030.54;;;5.17;74.92
24013;BME280;12220;50.194;18.948;2023-02-22T08:01:48;102036.79;;;5.20;74.98
24013;BME280;12220;50.194;18.948;2023-02-22T08:03:50;102029.39;;;5.26;75.02
24013;BME280;12220;50.194;18.948;2023-02-22T08:05:57;102032.05;;;5.29;75.02
24013;BME280;12220;50.194;18.948;2023-02-22T08:08:00;102032.89;;;5.31;75.00
24013;BME280;12220;50.194;18.948;2023-02-22T08:10:06;102023.79;;;5.33;75.07
24013;BME280;12220;50.194;18.948;2023-02-22T08:12:08;102029.16;;;5.35;75.09
24013;BME280;12220;50.194;18.948;2023-02-22T08:14:09;102030.87;;;5.39;75.14
24013;BME280;12220;50.194;18.948;2023-02-22T08:16:13;102028.98;;;5.41;75.19
24013;BME280;12220;50.194;18.948;2023-02-22T08:18:16;102036.07;;;5.47;75.24
24013;BME280;12220;50.194;18.948;2023-02-22T08:20:19;102030.50;;;5.51;75.27
24013;BME280;12220;50.194;18.948;2023-02-22T08:22:21;102034.93;;;5.55;75.30
24013;BME280;12220;50.194;18.948;2023-02-22T08:24:34;102034.70;;;5.63;75.31
24013;BME280;12220;50.194;18.948;2023-02-22T08:26:36;102031.84;;;5.68;75.36
24013;BME280;12220;50.194;18.948;2023-02-22T08:30:53;102035.04;;;5.82;75.45
24013;BME280;12220;50.194;18.948;2023-02-22T08:32:55;102041.21;;;5.89;75.52
24013;BME280;12220;50.194;18.948;2023-02-22T08:35:05;102036.48;;;5.97;75.51
24013;BME280;12220;50.194;18.948;2023-02-22T08:37:07;102038.99;;;6.03;75.49
24013;BME280;12220;50.194;18.948;2023-02-22T08:39:09;102037.98;;;6.07;75.48
24013;BME280;12220;50.194;18.948;2023-02-22T08:41:11;102041.37;;;6.14;75.48
24013;BME280;12220;50.194;18.948;2023-02-22T08:43:21;102043.95;;;6.19;75.46
24013;BME280;12220;50.194;18.948;2023-02-22T08:45:26;102050.16;;;6.24;75.49
24013;BME280;12220;50.194;18.948;2023-02-22T08:47:28;102047.28;;;6.28;75.48
24013;BME280;12220;50.194;18.948;2023-02-22T08:49:36;102045.33;;;6.34;75.43
24013;BME280;12220;50.194;18.948;2023-02-22T08:51:41;102045.23;;;6.37;75.43
24013;BME280;12220;50.194;18.948;2023-02-22T08:53:42;102051.45;;;6.40;75.48
24013;BME280;12220;50.194;18.948;2023-02-22T08:55:44;102041.37;;;6.44;75.48
24013;BME280;12220;50.194;18.948;2023-02-22T08:57:46;102040.23;;;6.51;75.47
24013;BME280;12220;50.194;18.948;2023-02-22T09:00:10;102051.90;;;6.55;75.46
24013;BME280;12220;50.194;18.948;2023-02-22T09:02:18;102043.52;;;6.61;75.46
24013;BME280;12220;50.194;18.948;2023-02-22T09:04:20;102041.55;;;6.66;75.43
24013;BME280;12220;50.194;18.948;2023-02-22T09:06:21;102040.47;;;6.72;75.48
24013;BME280;12220;50.194;18.948;2023-02-22T09:08:23;102052.94;;;6.79;75.43
24013;BME280;12220;50.194;18.948;2023-02-22T09:10:30;102039.16;;;6.84;75.32
24013;BME280;12220;50.194;18.948;2023-02-22T09:12:31;102046.35;;;6.86;75.28
24013;BME280;12220;50.194;18.948;2023-02-22T09:14:33;102045.36;;;6.89;75.24
24013;BME280;12220;50.194;18.948;2023-02-22T09:16:34;102050.69;;;6.92;75.17
24013;BME280;12220;50.194;18.948;2023-02-22T09:18:43;102055.07;;;6.96;75.05
24013;BME280;12220;50.194;18.948;2023-02-22T09:20:44;102047.75;;;6.98;75.22
24013;BME280;12220;50.194;18.948;2023-02-22T09:22:47;102044.04;;;7.01;74.89
24013;BME280;12220;50.194;18.948;2023-02-22T09:24:51;102058.38;;;7.06;75.03
24013;BME280;12220;50.194;18.948;2023-02-22T09:26:57;102051.83;;;7.11;75.00
24013;BME280;12220;50.194;18.948;2023-02-22T09:29:00;102053.57;;;7.14;74.95
24013;BME280;12220;50.194;18.948;2023-02-22T09:31:02;102057.98;;;7.18;74.92
24013;BME280;12220;50.194;18.948;2023-02-22T09:33:15;102055.95;;;7.23;74.83
24013;BME280;12220;50.194;18.948;2023-02-22T09:35:18;102056.81;;;7.25;74.70
24013;BME280;12220;50.194;18.948;2023-02-22T09:37:20;102051.25;;;7.28;74.64
24013;BME280;12220;50.194;18.948;2023-02-22T09:43:58;102050.85;;;7.39;74.43
24013;BME280;12220;50.194;18.948;2023-02-22T09:48:19;102041.39;;;7.49;74.33
24013;BME280;12220;50.194;18.948;2023-02-22T09:50:27;102045.74;;;7.55;74.16
24013;BME280;12220;50.194;18.948;2023-02-22T09:52:46;102040.18;;;7.58;73.85
24013;BME280;12220;50.194;18.948;2023-02-22T09:54:49;102043.69;;;7.62;73.73
24013;BME280;12220;50.194;18.948;2023-02-22T09:56:55;102042.66;;;7.64;73.37
24013;BME280;12220;50.194;18.948;2023-02-22T09:59:02;102040.79;;;7.66;73.20
24013;BME280;12220;50.194;18.948;2023-02-22T10:05:35;102042.22;;;7.77;72.67
24013;BME280;12220;50.194;18.948;2023-02-22T10:07:47;102031.20;;;7.80;72.57
24013;BME280;12220;50.194;18.948;2023-02-22T10:09:55;102030.95;;;7.86;72.39
24013;BME280;12220;50.194;18.948;2023-02-22T10:12:01;102029.90;;;7.90;72.27
24013;BME280;12220;50.194;18.948;2023-02-22T10:16:33;102033.23;;;7.98;71.82
24013;BME280;12220;50.194;18.948;2023-02-22T10:26:14;102026.52;;;8.07;70.70
24013;BME280;12220;50.194;18.948;2023-02-22T10:28:33;102027.27;;;8.11;70.58
24013;BME280;12220;50.194;18.948;2023-02-22T10:30:56;102024.43;;;8.14;70.35
24013;BME280;12220;50.194;18.948;2023-02-22T10:33:14;102013.45;;;8.15;70.01
24013;BME280;12220;50.194;18.948;2023-02-22T10:35:24;102019.69;;;8.19;70.00
24013;BME280;12220;50.194;18.948;2023-02-22T10:37:30;102028.63;;;8.23;69.78
24013;BME280;12220;50.194;18.948;2023-02-22T10:39:37;102015.77;;;8.26;69.49
24013;BME280;12220;50.194;18.948;2023-02-22T10:41:50;102014.70;;;8.30;69.28
24013;BME280;12220;50.194;18.948;2023-02-22T10:43:54;102018.12;;;8.35;68.86
24013;BME280;12220;50.194;18.948;2023-02-22T10:46:00;102013.50;;;8.37;68.32
24013;BME280;12220;50.194;18.948;2023-02-22T10:50:34;102007.55;;;8.50;66.73
24013;BME280;12220;50.194;18.948;2023-02-22T10:52:37;102015.62;;;8.53;66.61
24013;BME280;12220;50.194;18.948;2023-02-22T10:54:41;102016.34;;;8.58;66.54
24013;BME280;12220;50.194;18.948;2023-02-22T10:56:47;102008.82;;;8.63;65.89
24013;BME280;12220;50.194;18.948;2023-02-22T10:58:56;102008.68;;;8.66;65.26
24013;BME280;12220;50.194;18.948;2023-02-22T11:03:20;102013.91;;;8.72;64.77
24013;BME280;12220;50.194;18.948;2023-02-22T11:07:38;102011.05;;;8.76;63.42
24013;BME280;12220;50.194;18.948;2023-02-22T11:09:48;102014.66;;;8.76;63.30
24013;BME280;12220;50.194;18.948;2023-02-22T11:14:02;102005.52;;;8.77;62.86
24013;BME280;12220;50.194;18.948;2023-02-22T11:16:16;102001.78;;;8.80;62.92
24013;BME280;12220;50.194;18.948;2023-02-22T11:18:25;101998.01;;;8.82;62.68
24013;BME280;12220;50.194;18.948;2023-02-22T11:20:38;101991.59;;;8.83;62.71
24013;BME280;12220;50.194;18.948;2023-02-22T11:22:41;102000.63;;;8.85;62.33
24013;BME280;12220;50.194;18.948;2023-02-22T11:24:51;101998.84;;;8.84;62.60
24013;BME280;12220;50.194;18.948;2023-02-22T11:27:01;101995.10;;;8.87;62.38
24013;BME280;12220;50.194;18.948;2023-02-22T11:29:20;101995.03;;;8.88;62.11
24013;BME280;12220;50.194;18.948;2023-02-22T11:31:25;101992.23;;;8.90;61.93
24013;BME280;12220;50.194;18.948;2023-02-22T11:33:36;101987.65;;;8.90;61.85
24013;BME280;12220;50.194;18.948;2023-02-22T11:37:59;101988.42;;;8.94;61.68
24013;BME280;12220;50.194;18.948;2023-02-22T11:42:26;101984.50;;;9.00;61.17
24013;BME280;12220;50.194;18.948;2023-02-22T11:44:30;101984.47;;;9.01;60.98
24013;BME280;12220;50.194;18.948;2023-02-22T11:46:41;101981.60;;;9.04;60.98
24013;BME280;12220;50.194;18.948;2023-02-22T11:55:32;101981.11;;;9.15;59.44
24013;BME280;12220;50.194;18.948;2023-02-22T11:57:43;101983.84;;;9.15;59.28
24013;BME280;12220;50.194;18.948;2023-02-22T11:59:56;101984.66;;;9.17;59.34
24013;BME280;12220;50.194;18.948;2023-02-22T12:14:00;101973.19;;;9.30;58.29
24013;BME280;12220;50.194;18.948;2023-02-22T12:18:45;101973.12;;;9.31;58.01
24013;BME280;12220;50.194;18.948;2023-02-22T12:20:59;101978.58;;;9.31;57.54
24013;BME280;12220;50.194;18.948;2023-02-22T12:23:13;101977.77;;;9.29;57.28
24013;BME280;12220;50.194;18.948;2023-02-22T12:25:20;101975.12;;;9.28;57.44
24013;BME280;12220;50.194;18.948;2023-02-22T12:29:48;101976.87;;;9.29;57.68
24013;BME280;12220;50.194;18.948;2023-02-22T12:46:36;101966.77;;;9.70;57.94
24013;BME280;12220;50.194;18.948;2023-02-22T12:50:57;101966.92;;;9.67;57.38
24013;BME280;12220;50.194;18.948;2023-02-22T12:55:24;101959.88;;;9.62;57.41
24013;BME280;12220;50.194;18.948;2023-02-22T12:59:48;101961.20;;;9.53;56.94
24013;BME280;12220;50.194;18.948;2023-02-22T13:01:59;101955.88;;;9.50;56.99
24013;BME280;12220;50.194;18.948;2023-02-22T13:04:01;101954.02;;;9.50;57.12
24013;BME280;12220;50.194;18.948;2023-02-22T13:08:44;101952.05;;;9.54;57.48
24013;BME280;12220;50.194;18.948;2023-02-22T13:13:26;101950.11;;;9.56;56.84
24013;BME280;12220;50.194;18.948;2023-02-22T13:15:45;101954.71;;;9.55;57.00
24013;BME280;12220;50.194;18.948;2023-02-22T13:18:13;101957.52;;;9.54;57.15
24013;BME280;12220;50.194;18.948;2023-02-22T13:22:47;101951.91;;;9.57;57.25
24013;BME280;12220;50.194;18.948;2023-02-22T13:29:36;101951.60;;;9.63;57.12
24013;BME280;12220;50.194;18.948;2023-02-22T13:34:02;101950.80;;;9.61;56.94
24013;BME280;12220;50.194;18.948;2023-02-22T13:45:34;101949.59;;;9.67;56.67
24013;BME280;12220;50.194;18.948;2023-02-22T13:52:29;101945.62;;;9.74;56.53
24013;BME280;12220;50.194;18.948;2023-02-22T13:56:52;101949.53;;;9.68;56.11
24013;BME280;12220;50.194;18.948;2023-02-22T13:58:58;101951.46;;;9.66;56.22
24013;BME280;12220;50.194;18.948;2023-02-22T14:03:31;101952.34;;;9.67;56.29
24013;BME280;12220;50.194;18.948;2023-02-22T14:05:49;101952.41;;;9.65;56.32
24013;BME280;12220;50.194;18.948;2023-02-22T14:08:00;101957.01;;;9.65;56.41
24013;BME280;12220;50.194;18.948;2023-02-22T14:10:30;101953.39;;;9.64;56.14
24013;BME280;12220;50.194;18.948;2023-02-22T14:14:30;101946.13;;;9.63;56.44
24013;BME280;12220;50.194;18.948;2023-02-22T14:16:31;101956.13;;;9.64;56.44
24013;BME280;12220;50.194;18.948;2023-02-22T14:18:45;101954.27;;;9.65;56.45
24013;BME280;12220;50.194;18.948;2023-02-22T14:23:54;101952.26;;;9.68;56.63
24013;BME280;12220;50.194;18.948;2023-02-22T14:29:50;101950.13;;;9.75;56.62
24013;BME280;12220;50.194;18.948;2023-02-22T14:32:05;101949.19;;;9.76;56.57
24013;BME280;12220;50.194;18.948;2023-02-22T14:34:16;101947.33;;;9.76;56.58